Time;durP1;ratioP1;P1;durP2;ratioP2;P2;SDS_P1;SDS_P2;PMS_P1;PMS_P2;Temp;Humidity;BMP_temperature;BMP_pressure;BME280_temperature;BME280_humidity;BME280_pressure;Samples;Min_cycle;Max_cycle;Signal;HPM_P1;HPM_P2
2022/06/10 00:00:08;;;;;;;4.97;4.57;;;;;;;13.76;87.16;97682.66;6228552;28;20313;-85
2022/06/10 00:03:12;;;;;;;5.97;4.03;;;;;;;13.74;87.28;97687.25;6221456;28;20227;-85
2022/06/10 00:06:14;;;;;;;5.13;4.10;;;;;;;13.74;86.96;97682.78;6234747;28;20628;-84
2022/06/10 00:09:16;;;;;;;4.13;3.73;;;;;;;13.76;87.02;97694.09;6252742;28;20233;-84
2022/06/10 00:12:18;;;;;;;7.30;4.87;;;;;;;13.71;87.52;97706.94;6219160;28;20221;-85
2022/06/10 00:15:20;;;;;;;5.87;4.43;;;;;;;13.72;87.24;97705.13;6236213;28;20225;-85
2022/06/10 00:18:26;;;;;;;4.70;4.17;;;;;;;13.73;86.92;97694.38;6218657;28;20250;-85
2022/06/10 00:21:28;;;;;;;3.90;3.60;;;;;;;13.73;87.31;97683.75;6225419;28;20695;-84
2022/06/10 00:24:30;;;;;;;5.33;3.90;;;;;;;13.71;87.40;97691.00;6249583;28;20717;-85
2022/06/10 00:27:32;;;;;;;4.60;4.20;;;;;;;13.70;87.56;97699.94;6249972;28;20501;-85
2022/06/10 00:30:35;;;;;;;6.53;4.50;;;;;;;13.67;87.67;97706.38;6227544;28;20224;-85
2022/06/10 00:33:40;;;;;;;4.50;4.10;;;;;;;13.67;87.66;97694.94;6235434;28;20226;-85
2022/06/10 00:36:42;;;;;;;5.10;4.60;;;;;;;13.61;87.51;97704.28;6218751;28;20703;-85
2022/06/10 00:39:44;;;;;;;4.53;4.13;;;;;;;13.61;88.00;97692.84;6218188;28;20242;-85
2022/06/10 00:42:46;;;;;;;5.47;3.93;;;;;;;13.63;87.87;97705.00;6219353;28;20306;-85
2022/06/10 00:46:11;;;;;;;4.97;4.57;;;;;;;13.60;87.85;97707.09;6253891;28;20252;-85
2022/06/10 00:49:14;;;;;;;8.83;4.93;;;;;;;13.59;88.22;97705.41;6235899;28;20962;-85
2022/06/10 00:52:28;;;;;;;4.90;4.50;;;;;;;13.55;87.82;97714.63;6235445;28;20230;-84
2022/06/10 00:55:31;;;;;;;4.90;4.20;;;;;;;13.53;88.01;97711.28;6253951;28;20765;-85
2022/06/10 00:59:12;;;;;;;6.60;4.30;;;;;;;13.53;88.36;97719.25;6218926;28;20222;-84
2022/06/10 01:02:35;;;;;;;6.03;4.50;;;;;;;13.49;88.58;97721.31;6149081;28;20234;-85
2022/06/10 01:05:37;;;;;;;7.03;4.77;;;;;;;13.47;89.29;97719.81;6154265;28;20346;-85
2022/06/10 01:08:42;;;;;;;6.13;4.13;;;;;;;13.46;89.44;97715.47;6156719;28;20290;-85
2022/06/10 01:12:17;;;;;;;5.13;4.03;;;;;;;13.43;89.28;97716.59;6157587;28;20737;-84
2022/06/10 01:15:47;;;;;;;7.73;4.90;;;;;;;13.36;89.79;97722.59;6141175;28;20765;-85
2022/06/10 01:19:35;;;;;;;5.53;4.63;;;;;;;13.36;89.37;97712.84;6141075;28;20245;-85
2022/06/10 01:22:57;;;;;;;5.70;5.20;;;;;;;13.36;90.45;97717.28;6157248;28;20214;-84
2022/06/10 01:26:19;;;;;;;6.13;5.33;;;;;;;13.30;90.25;97711.56;6140916;28;20230;-85
2022/06/10 01:29:55;;;;;;;5.53;4.87;;;;;;;13.29;90.32;97712.53;6140890;28;20787;-84
2022/06/10 01:33:06;;;;;;;7.40;5.07;;;;;;;13.28;90.65;97717.97;6156910;28;20377;-85
2022/06/10 01:36:24;;;;;;;6.57;5.03;;;;;;;13.31;90.30;97725.66;6187011;28;20223;-85
2022/06/10 01:39:33;;;;;;;5.77;5.13;;;;;;;13.29;90.83;97722.28;6214188;28;20307;-85
2022/06/10 01:42:47;;;;;;;7.90;5.57;;;;;;;13.26;90.51;97727.91;6231071;28;20223;-84
2022/06/10 01:46:14;;;;;;;7.47;5.40;;;;;;;13.24;91.34;97740.44;6206189;28;20700;-85
2022/06/10 01:49:30;;;;;;;8.27;5.33;;;;;;;13.22;91.19;97732.63;6228172;28;20794;-85
2022/06/10 01:52:52;;;;;;;5.87;5.27;;;;;;;13.20;91.06;97739.88;6232156;28;20313;-85
2022/06/10 01:56:25;;;;;;;7.67;5.73;;;;;;;13.20;91.31;97746.97;6247421;28;20227;-85
2022/06/10 01:59:47;;;;;;;7.17;5.77;;;;;;;13.17;92.03;97732.22;6203529;28;20229;-84
2022/06/10 02:02:56;;;;;;;7.97;5.87;;;;;;;13.16;91.78;97740.31;6214292;28;20243;-84
2022/06/10 02:06:08;;;;;;;6.23;5.63;;;;;;;13.12;91.92;97737.03;6255651;28;20231;-84
2022/06/10 02:09:16;;;;;;;7.43;6.27;;;;;;;13.12;91.86;97741.50;6230204;28;20273;-84
2022/06/10 02:12:37;;;;;;;7.10;6.30;;;;;;;13.11;92.17;97737.19;6213451;28;20208;-83
2022/06/10 02:15:52;;;;;;;6.50;5.80;;;;;;;13.15;91.65;97738.63;6214388;28;20643;-84
2022/06/10 02:19:02;;;;;;;14.33;6.50;;;;;;;13.13;91.96;97745.84;6213405;28;20221;-85
2022/06/10 02:22:11;;;;;;;8.17;5.70;;;;;;;13.11;91.45;97745.97;6230403;28;20362;-85
2022/06/10 02:25:25;;;;;;;8.00;5.93;;;;;;;13.14;91.59;97753.69;6214123;28;20235;-85
2022/06/10 02:28:52;;;;;;;8.87;5.93;;;;;;;13.12;91.32;97766.19;6230554;28;20290;-85
2022/06/10 02:31:58;;;;;;;8.23;5.83;;;;;;;13.12;91.34;97757.41;6230324;28;20753;-84
2022/06/10 02:35:01;;;;;;;7.07;5.70;;;;;;;13.10;91.93;97767.28;6228912;28;20243;-84
2022/06/10 02:38:33;;;;;;;8.23;6.27;;;;;;;13.07;91.91;97763.13;6247338;28;20339;-84
2022/06/10 02:41:38;;;;;;;6.97;6.10;;;;;;;13.06;92.29;97768.56;6229818;28;20730;-84
2022/06/10 02:44:46;;;;;;;6.63;5.77;;;;;;;13.06;92.10;97772.06;6233101;28;20838;-84
2022/06/10 02:48:12;;;;;;;8.13;6.67;;;;;;;13.01;91.87;97765.47;6253148;28;20254;-85
2022/06/10 02:51:16;;;;;;;8.30;5.57;;;;;;;13.02;91.99;97780.38;6230308;28;20244;-86
2022/06/10 02:54:28;;;;;;;7.50;6.00;;;;;;;12.96;92.13;97776.50;6250112;28;20308;-86
2022/06/10 03:01:12;;;;;;;9.17;6.00;;;;;;;12.97;92.13;97782.63;6268575;28;20274;-86
2022/06/10 03:04:25;;;;;;;6.60;5.97;;;;;;;12.93;92.59;97788.19;6241884;28;20597;-85
2022/06/10 03:07:43;;;;;;;12.67;5.73;;;;;;;12.91;92.54;97802.53;6237282;28;20241;-85
2022/06/10 03:11:22;;;;;;;6.40;5.50;;;;;;;12.94;92.45;97799.63;6253873;28;20729;-84
2022/06/10 03:14:41;;;;;;;7.50;5.90;;;;;;;12.91;92.18;97802.53;6230682;28;20231;-84
2022/06/10 03:18:05;;;;;;;11.57;5.33;;;;;;;12.92;92.49;97801.56;6243984;28;20369;-85
2022/06/10 03:21:46;;;;;;;9.33;6.07;;;;;;;12.89;92.54;97818.56;6235909;28;20234;-85
2022/06/10 03:24:48;;;;;;;10.70;6.47;;;;;;;12.89;92.95;97825.66;6213499;28;20235;-85
2022/06/10 03:28:12;;;;;;;6.63;6.00;;;;;;;12.86;92.45;97810.91;6235453;28;20315;-85
2022/06/10 03:31:24;;;;;;;6.03;5.53;;;;;;;12.89;93.04;97821.19;6235622;28;20328;-84
2022/06/10 03:34:32;;;;;;;7.10;6.30;;;;;;;12.88;92.97;97816.88;6227589;28;20434;-84
2022/06/10 03:37:37;;;;;;;6.37;5.77;;;;;;;12.90;92.93;97820.22;6234170;28;20599;-85
2022/06/10 03:40:41;;;;;;;7.90;5.73;;;;;;;12.90;92.90;97828.19;6253203;28;20225;-84
2022/06/10 03:43:43;;;;;;;6.90;5.60;;;;;;;12.92;92.69;97830.69;6228520;28;20242;-84
2022/06/10 03:46:49;;;;;;;5.47;4.97;;;;;;;12.94;92.36;97834.91;6237191;28;20231;-84
2022/06/10 03:49:57;;;;;;;6.83;6.13;;;;;;;12.92;93.03;97833.34;6253258;28;20334;-84
2022/06/10 03:52:59;;;;;;;6.57;5.67;;;;;;;12.93;93.25;97841.16;6234921;28;20456;-85
2022/06/10 03:56:02;;;;;;;6.87;5.93;;;;;;;12.91;93.20;97852.84;6236766;28;20247;-85
2022/06/10 03:59:04;;;;;;;7.60;5.40;;;;;;;12.89;92.89;97853.00;6224481;28;20384;-85
2022/06/10 04:02:06;;;;;;;6.07;5.47;;;;;;;12.89;93.09;97857.44;6225511;28;20231;-85
2022/06/10 04:05:10;;;;;;;7.67;6.03;;;;;;;12.91;92.64;97869.59;6194555;28;20238;-85
2022/06/10 04:08:13;;;;;;;5.93;5.30;;;;;;;12.89;93.38;97863.59;6211508;28;20237;-85
2022/06/10 04:11:15;;;;;;;8.97;5.97;;;;;;;12.92;93.59;97873.09;6228734;28;20326;-85
2022/06/10 04:14:17;;;;;;;7.03;5.67;;;;;;;12.95;93.76;97870.19;6210164;28;20695;-85
2022/06/10 04:17:19;;;;;;;11.23;6.30;;;;;;;12.93;93.53;97875.59;6229050;28;20829;-84
2022/06/10 04:20:29;;;;;;;8.07;5.20;;;;;;;12.97;93.44;97875.34;6202984;28;20240;-85
2022/06/10 04:23:31;;;;;;;6.87;5.83;;;;;;;12.96;93.08;97879.81;6218562;28;20716;-85
2022/06/10 04:26:33;;;;;;;6.13;5.53;;;;;;;13.00;92.86;97881.19;6211073;28;20361;-85
2022/06/10 04:29:35;;;;;;;6.10;5.23;;;;;;;13.04;93.07;97889.72;6211315;28;20235;-85
2022/06/10 04:32:37;;;;;;;8.13;6.20;;;;;;;13.04;92.83;97892.38;6210584;28;20269;-84
2022/06/10 04:35:41;;;;;;;5.13;4.70;;;;;;;13.05;93.16;97910.81;6228416;28;20235;-84
2022/06/10 04:38:43;;;;;;;7.00;5.50;;;;;;;13.05;92.80;97913.44;6228720;28;20343;-84
2022/06/10 04:41:46;;;;;;;6.57;4.83;;;;;;;13.05;92.79;97915.25;6230583;28;20309;-85
2022/06/10 04:44:48;;;;;;;5.80;5.20;;;;;;;13.05;93.43;97909.97;6215380;28;20309;-84
2022/06/10 04:47:50;;;;;;;6.23;4.90;;;;;;;13.02;92.95;97919.00;6215593;28;20605;-84
2022/06/10 04:50:52;;;;;;;5.93;5.20;;;;;;;13.07;92.94;97914.16;6214841;28;20244;-84
2022/06/10 04:53:54;;;;;;;5.60;5.17;;;;;;;13.05;92.92;97916.09;6231258;28;20237;-85
2022/06/10 04:56:56;;;;;;;5.40;4.63;;;;;;;13.07;92.89;97900.91;6233493;28;20319;-85
2022/06/10 04:59:58;;;;;;;5.43;4.93;;;;;;;13.07;92.92;97908.88;6227537;28;20232;-84
2022/06/10 05:03:02;;;;;;;5.53;4.93;;;;;;;13.14;92.80;97923.28;6224135;28;20608;-85
2022/06/10 05:06:05;;;;;;;5.90;4.90;;;;;;;13.22;92.90;97918.16;6239682;28;20229;-84
2022/06/10 05:09:07;;;;;;;5.77;5.20;;;;;;;13.25;92.11;97912.59;6239616;28;20302;-85
2022/06/10 05:12:09;;;;;;;7.87;5.47;;;;;;;13.26;92.60;97924.88;6239162;28;20640;-84
2022/06/10 05:15:16;;;;;;;6.30;5.77;;;;;;;13.24;91.85;97934.75;6238250;28;20298;-84
2022/06/10 05:18:21;;;;;;;6.53;5.80;;;;;;;13.27;92.09;97931.84;6239190;28;20210;-85
2022/06/10 05:21:23;;;;;;;6.80;5.73;;;;;;;13.28;92.32;97941.47;6238754;28;20230;-84
2022/06/10 05:24:25;;;;;;;6.60;6.00;;;;;;;13.27;91.74;97941.63;6248739;28;20765;-84
2022/06/10 05:27:28;;;;;;;8.10;6.47;;;;;;;13.26;91.90;97946.06;6234611;28;20740;-84
2022/06/10 05:30:32;;;;;;;7.00;6.33;;;;;;;13.27;92.30;97952.22;6238834;28;20250;-85
2022/06/10 05:36:55;;;;;;;6.40;5.80;;;;;;;13.29;92.03;97950.25;6237957;28;20254;-84
2022/06/10 05:39:57;;;;;;;8.10;6.27;;;;;;;13.28;92.33;97956.53;6237711;28;20219;-85
2022/06/10 05:43:00;;;;;;;6.90;6.20;;;;;;;13.30;92.31;97963.38;6256060;28;20656;-84
2022/06/10 05:46:02;;;;;;;5.83;5.33;;;;;;;13.34;91.84;97971.06;6230255;28;20231;-84
2022/06/10 05:49:04;;;;;;;5.87;5.37;;;;;;;13.39;92.16;97972.34;6241670;28;20215;-85
2022/06/10 05:52:07;;;;;;;7.20;6.47;;;;;;;13.41;92.15;97980.16;6238542;28;20310;-85
2022/06/10 05:55:11;;;;;;;6.80;5.67;;;;;;;13.39;91.58;97968.84;6234785;28;20255;-85
2022/06/10 05:58:13;;;;;;;8.70;6.00;;;;;;;13.41;91.92;97977.50;6198672;28;20239;-84
2022/06/10 06:01:15;;;;;;;10.07;5.50;;;;;;;13.40;91.89;97979.31;6255976;28;20231;-85
2022/06/10 06:04:17;;;;;;;7.30;5.43;;;;;;;13.44;91.71;97979.91;6246085;28;20252;-85
2022/06/10 06:07:26;;;;;;;6.17;5.43;;;;;;;13.48;92.16;97983.94;6246759;28;20227;-84
2022/06/10 06:10:28;;;;;;;7.83;5.20;;;;;;;13.47;92.08;97980.47;6213632;28;20239;-84
2022/06/10 06:13:31;;;;;;;5.60;4.63;;;;;;;13.44;92.14;97993.16;6246102;28;20266;-84
2022/06/10 06:16:33;;;;;;;6.07;4.40;;;;;;;13.45;92.34;97997.50;6229844;28;20243;-84
2022/06/10 06:19:36;;;;;;;5.50;4.90;;;;;;;13.49;92.32;97998.88;6230900;28;20714;-85
2022/06/10 06:22:38;;;;;;;5.53;4.80;;;;;;;13.46;92.37;98007.13;6197661;28;20710;-84
2022/06/10 06:25:41;;;;;;;5.30;4.37;;;;;;;13.45;92.40;98008.09;6213672;28;20228;-86
2022/06/10 06:28:43;;;;;;;5.27;4.77;;;;;;;13.44;92.50;98009.06;6204856;28;20696;-86
2022/06/10 06:31:45;;;;;;;4.90;4.47;;;;;;;13.47;92.25;98012.31;6201297;28;20232;-86
2022/06/10 06:34:47;;;;;;;6.60;5.23;;;;;;;13.48;92.55;98013.94;6247308;28;20235;-85
2022/06/10 06:37:49;;;;;;;4.87;4.47;;;;;;;13.52;92.50;98018.03;6266170;28;20723;-86
2022/06/10 06:40:52;;;;;;;5.03;4.53;;;;;;;13.57;92.75;98021.13;6220524;28;20777;-85
2022/06/10 06:43:54;;;;;;;5.00;4.50;;;;;;;13.55;92.05;98016.94;6212296;28;20648;-85
2022/06/10 06:46:56;;;;;;;6.23;4.53;;;;;;;13.60;92.48;98017.34;6212978;28;20247;-84
2022/06/10 06:49:59;;;;;;;5.40;4.90;;;;;;;13.63;92.42;98025.06;6228133;28;20342;-85
2022/06/10 06:53:01;;;;;;;5.07;4.57;;;;;;;13.69;92.50;98037.75;6213782;28;20232;-85
2022/06/10 06:56:08;;;;;;;5.50;5.00;;;;;;;13.66;92.36;98030.09;6221006;28;20232;-85
2022/06/10 06:59:10;;;;;;;6.63;5.17;;;;;;;13.67;92.65;98045.03;6208574;28;20258;-84
2022/06/10 07:02:12;;;;;;;5.67;5.07;;;;;;;13.63;92.07;98040.97;6213490;28;20754;-84
2022/06/10 07:05:15;;;;;;;5.50;5.00;;;;;;;13.60;92.01;98044.72;6199793;28;20370;-84
2022/06/10 07:08:17;;;;;;;7.93;5.53;;;;;;;13.59;91.71;98052.81;6195793;28;20576;-84
2022/06/10 07:11:19;;;;;;;5.87;5.17;;;;;;;13.61;92.27;98053.50;6212566;28;20716;-84
2022/06/10 07:14:22;;;;;;;6.33;5.30;;;;;;;13.65;92.19;98065.53;6211988;28;20587;-84
2022/06/10 07:17:24;;;;;;;6.13;5.53;;;;;;;13.70;92.23;98059.81;6230214;28;20238;-85
2022/06/10 07:20:30;;;;;;;6.13;5.03;;;;;;;13.75;92.41;98060.28;6202283;28;20260;-84
2022/06/10 07:23:32;;;;;;;5.80;5.20;;;;;;;13.75;92.24;98057.63;6207918;28;20314;-85
2022/06/10 07:26:34;;;;;;;6.47;5.17;;;;;;;13.76;92.13;98057.50;6187311;28;20371;-84
2022/06/10 07:29:37;;;;;;;7.53;5.47;;;;;;;13.73;92.17;98062.22;6192695;28;20598;-85
2022/06/10 07:32:39;;;;;;;5.97;5.47;;;;;;;13.82;92.27;98067.56;6213238;28;20239;-85
2022/06/10 07:35:41;;;;;;;6.67;5.37;;;;;;;13.89;92.10;98070.50;6211673;28;20219;-85
2022/06/10 07:38:44;;;;;;;6.83;4.90;;;;;;;14.00;91.85;98068.59;6231595;28;20227;-85
2022/06/10 07:42:00;;;;;;;6.00;5.40;;;;;;;14.04;91.66;98078.00;6213286;28;20231;-85
2022/06/10 07:45:03;;;;;;;5.87;5.30;;;;;;;14.00;90.82;98079.22;6186756;28;20236;-84
2022/06/10 07:48:06;;;;;;;5.10;4.60;;;;;;;13.99;91.31;98077.53;6185503;28;20339;-85
2022/06/10 07:51:08;;;;;;;5.13;4.43;;;;;;;13.95;91.51;98083.25;6194080;28;20675;-85
2022/06/10 07:54:11;;;;;;;4.57;4.17;;;;;;;13.99;91.44;98082.84;6227699;28;20688;-85
2022/06/10 07:57:13;;;;;;;4.53;4.10;;;;;;;14.06;91.08;98084.97;6227368;28;20301;-85
2022/06/10 08:00:15;;;;;;;4.47;4.07;;;;;;;14.03;91.33;98088.72;6211944;28;20673;-85
2022/06/10 08:03:17;;;;;;;4.37;3.97;;;;;;;14.12;91.20;98089.72;6227465;28;20219;-85
2022/06/10 08:06:23;;;;;;;4.83;4.20;;;;;;;14.11;91.14;98096.84;6195938;28;20219;-85
2022/06/10 08:09:25;;;;;;;4.10;3.73;;;;;;;14.09;90.76;98105.91;6194938;28;20227;-84
2022/06/10 08:12:27;;;;;;;4.87;4.47;;;;;;;14.09;90.73;98101.44;6211096;28;20236;-86
2022/06/10 08:15:29;;;;;;;5.07;3.63;;;;;;;14.11;91.13;98099.50;6212575;28;20297;-85
2022/06/10 08:18:33;;;;;;;5.17;3.87;;;;;;;14.11;90.75;98096.00;6215580;28;20334;-85
2022/06/10 08:24:56;;;;;;;4.50;4.10;;;;;;;14.08;90.34;98105.06;6215941;28;20609;-85
2022/06/10 08:27:58;;;;;;;4.40;4.00;;;;;;;14.17;90.73;98111.41;6215968;28;20706;-85
2022/06/10 08:31:00;;;;;;;4.80;4.03;;;;;;;14.16;90.50;98110.56;6216313;28;20700;-85
2022/06/10 08:34:03;;;;;;;4.53;4.13;;;;;;;14.13;90.77;98117.97;6231704;28;20239;-85
2022/06/10 08:37:05;;;;;;;4.90;4.30;;;;;;;14.12;91.13;98117.13;6216344;28;20575;-85
2022/06/10 08:40:10;;;;;;;4.47;4.07;;;;;;;14.14;90.83;98123.13;6232091;28;20260;-84
2022/06/10 08:43:24;;;;;;;4.60;4.20;;;;;;;14.12;91.20;98126.91;6224236;28;20221;-85
2022/06/10 08:46:26;;;;;;;4.77;3.70;;;;;;;14.04;91.11;98128.41;6231252;28;20239;-84
2022/06/10 08:49:43;;;;;;;3.83;3.53;;;;;;;14.04;91.26;98133.72;6215131;28;20235;-84
2022/06/10 08:53:04;;;;;;;4.47;4.07;;;;;;;14.08;91.33;98134.28;6233128;28;20263;-84
2022/06/10 08:56:18;;;;;;;4.83;3.77;;;;;;;14.11;91.24;98141.97;6191272;28;20712;-85
2022/06/10 08:59:38;;;;;;;5.83;4.10;;;;;;;14.12;91.47;98143.66;6198356;28;20331;-85
2022/06/10 09:03:13;;;;;;;5.03;4.53;;;;;;;14.17;91.12;98148.59;6214650;28;20293;-85
2022/06/10 09:06:23;;;;;;;4.17;3.77;;;;;;;14.22;91.49;98147.19;6217118;28;20245;-85
2022/06/10 09:09:27;;;;;;;5.03;4.53;;;;;;;14.22;91.40;98151.66;6215355;28;20688;-84
2022/06/10 09:13:03;;;;;;;4.47;4.07;;;;;;;14.19;91.19;98141.28;6214331;28;20323;-85
2022/06/10 09:16:21;;;;;;;5.20;4.70;;;;;;;14.15;91.99;98158.50;6214522;28;20263;-85
2022/06/10 09:19:48;;;;;;;5.20;4.00;;;;;;;14.08;92.34;98155.50;6214782;28;20232;-85
2022/06/10 09:23:17;;;;;;;4.80;4.30;;;;;;;14.06;92.32;98162.78;6231179;28;20712;-85
2022/06/10 09:26:26;;;;;;;4.50;4.10;;;;;;;14.05;92.59;98161.09;6205938;28;20371;-85
2022/06/10 09:29:29;;;;;;;6.40;5.07;;;;;;;14.02;92.73;98167.50;6191242;28;20220;-85
2022/06/10 09:32:33;;;;;;;4.47;4.07;;;;;;;13.95;92.26;98174.31;6194814;28;20595;-85
2022/06/10 09:35:55;;;;;;;6.00;4.50;;;;;;;13.96;92.73;98162.75;6214488;28;20326;-85
2022/06/10 09:39:06;;;;;;;6.50;4.40;;;;;;;13.94;92.84;98164.69;6230626;28;20228;-85
2022/06/10 09:42:40;;;;;;;4.93;4.03;;;;;;;13.94;93.15;98172.66;6213878;28;20629;-85
2022/06/10 09:46:04;;;;;;;4.80;4.40;;;;;;;13.89;93.29;98177.50;6197012;28;20311;-85
2022/06/10 09:49:22;;;;;;;5.13;4.53;;;;;;;13.87;93.29;98178.63;6229825;28;20259;-85
2022/06/10 09:52:47;;;;;;;5.80;4.20;;;;;;;13.90;93.01;98181.81;6230297;28;20714;-85
2022/06/10 09:56:14;;;;;;;4.70;4.20;;;;;;;13.89;93.23;98176.66;6173510;28;20656;-85
2022/06/10 09:59:25;;;;;;;5.03;4.60;;;;;;;13.95;93.39;98182.28;6217463;28;20718;-85
2022/06/10 10:02:35;;;;;;;5.93;4.37;;;;;;;13.92;93.19;98179.03;6206537;28;20828;-85
2022/06/10 10:06:02;;;;;;;5.57;4.67;;;;;;;13.89;93.33;98174.84;6204493;28;20221;-85
2022/06/10 10:09:25;;;;;;;5.33;4.70;;;;;;;13.90;93.31;98180.97;6203019;28;20252;-85
2022/06/10 10:12:51;;;;;;;5.83;5.33;;;;;;;13.87;93.19;98179.47;6228313;28;20728;-86
2022/06/10 10:16:12;;;;;;;5.63;5.13;;;;;;;13.93;93.13;98183.38;6230545;28;20262;-85
2022/06/10 10:20:00;;;;;;;5.77;5.27;;;;;;;13.95;93.44;98186.75;6222010;28;20259;-86
2022/06/10 10:23:14;;;;;;;5.83;5.33;;;;;;;13.92;93.28;98189.66;6245753;28;20238;-87
2022/06/10 10:26:24;;;;;;;5.90;5.20;;;;;;;13.91;93.65;98188.81;6206616;28;20232;-87
2022/06/10 10:29:33;;;;;;;8.33;5.80;;;;;;;13.94;93.57;98193.88;6221040;28;20228;-86
2022/06/10 10:32:40;;;;;;;5.57;5.07;;;;;;;13.97;93.49;98190.13;6243383;28;20274;-86
2022/06/10 10:35:46;;;;;;;7.67;6.13;;;;;;;13.98;93.37;98197.94;6221556;28;20251;-86
2022/06/10 10:38:50;;;;;;;6.20;5.60;;;;;;;14.02;93.33;98190.56;6225329;28;20247;-86
2022/06/10 10:41:56;;;;;;;6.30;5.70;;;;;;;14.06;93.66;98193.78;6219613;28;20321;-85
2022/06/10 10:45:14;;;;;;;7.20;6.50;;;;;;;14.07;93.55;98196.31;6230200;28;20239;-85
2022/06/10 10:48:20;;;;;;;7.23;6.10;;;;;;;14.12;93.43;98201.22;6212962;28;20250;-86
2022/06/10 10:51:29;;;;;;;6.53;6.03;;;;;;;14.16;92.94;98208.78;6196284;28;20817;-86
2022/06/10 10:55:02;;;;;;;8.27;6.10;;;;;;;14.18;92.99;98198.00;6198745;28;20235;-85
2022/06/10 10:58:17;;;;;;;7.67;6.97;;;;;;;14.23;92.99;98190.50;6196266;28;20228;-85
2022/06/10 11:01:48;;;;;;;7.63;6.83;;;;;;;14.24;92.37;98202.81;6212529;28;20369;-84
2022/06/10 11:04:50;;;;;;;8.10;7.30;;;;;;;14.25;92.64;98202.69;6195967;28;20610;-85
2022/06/10 11:08:11;;;;;;;7.37;6.70;;;;;;;14.28;92.74;98202.41;6228288;28;20239;-86
2022/06/10 11:11:22;;;;;;;7.77;6.37;;;;;;;14.14;92.27;98194.81;6212498;28;20775;-85
2022/06/10 11:14:36;;;;;;;10.90;7.40;;;;;;;14.20;92.48;98190.75;6212941;28;20708;-85
2022/06/10 11:17:43;;;;;;;8.40;7.53;;;;;;;14.27;92.94;98191.94;6212940;28;20239;-85
2022/06/10 11:20:45;;;;;;;7.73;7.00;;;;;;;14.34;92.71;98193.91;6216241;28;20227;-85
2022/06/10 11:23:54;;;;;;;8.37;7.50;;;;;;;14.38;92.59;98199.78;6227988;28;20232;-85
2022/06/10 11:27:00;;;;;;;7.60;6.70;;;;;;;14.43;92.45;98199.41;6229087;28;20236;-85
2022/06/10 11:30:08;;;;;;;9.70;7.90;;;;;;;14.42;92.00;98197.75;6211458;28;20232;-84
2022/06/10 11:33:29;;;;;;;8.67;7.40;;;;;;;14.50;91.46;98203.22;6211818;28;20806;-85
2022/06/10 11:36:43;;;;;;;8.37;7.50;;;;;;;14.56;91.19;98203.53;6211719;28;20227;-86
2022/06/10 11:39:56;;;;;;;9.53;7.87;;;;;;;14.56;91.30;98198.22;6228908;28;20251;-86
2022/06/10 11:43:18;;;;;;;9.87;8.00;;;;;;;14.58;91.39;98185.63;6211526;28;20223;-85
2022/06/10 11:46:32;;;;;;;8.73;7.80;;;;;;;14.55;91.07;98190.38;6210193;28;20234;-85
2022/06/10 11:49:54;;;;;;;8.30;7.27;;;;;;;14.53;90.97;98190.50;6212477;28;20703;-85
2022/06/10 11:53:06;;;;;;;8.73;7.93;;;;;;;14.54;91.24;98188.69;6210994;28;20314;-86
2022/06/10 12:00:25;;;;;;;8.37;7.57;;;;;;;14.54;90.78;98194.00;6220094;28;20247;-85
2022/06/10 12:03:33;;;;;;;8.33;7.47;;;;;;;14.55;90.85;98201.00;6223781;28;20335;-86
2022/06/10 12:06:47;;;;;;;9.13;8.20;;;;;;;14.53;90.74;98201.13;6226076;28;20242;-86
2022/06/10 12:09:57;;;;;;;8.70;7.93;;;;;;;14.55;91.05;98201.00;6229105;28;20367;-86
2022/06/10 12:12:59;;;;;;;9.73;8.73;;;;;;;14.61;90.79;98200.44;6228047;28;20239;-86
2022/06/10 12:16:02;;;;;;;17.27;8.57;;;;;;;14.62;90.16;98199.47;6228549;28;20239;-86
2022/06/10 12:19:12;;;;;;;9.80;8.80;;;;;;;14.63;90.18;98202.00;6228038;28;20227;-86
2022/06/10 12:22:14;;;;;;;9.00;7.97;;;;;;;14.70;90.27;98204.94;6222437;28;20228;-86
2022/06/10 12:25:20;;;;;;;10.43;8.57;;;;;;;14.68;90.10;98207.75;6228603;28;20232;-86
2022/06/10 12:29:16;;;;;;;9.00;8.07;;;;;;;14.73;89.58;98204.69;6227411;28;20219;-85
2022/06/10 12:32:44;;;;;;;8.50;7.07;;;;;;;14.81;89.69;98207.50;6177373;28;20656;-86
2022/06/10 12:35:48;;;;;;;9.23;8.33;;;;;;;14.81;89.30;98202.19;6227846;28;20228;-85
2022/06/10 12:38:52;;;;;;;9.10;8.20;;;;;;;14.84;89.80;98206.41;6243071;28;20231;-86
2022/06/10 12:42:09;;;;;;;9.60;8.60;;;;;;;14.81;89.46;98199.53;6227123;28;20244;-86
2022/06/10 12:45:17;;;;;;;8.07;7.27;;;;;;;14.85;89.71;98192.97;6219956;28;20228;-86
2022/06/10 12:48:25;;;;;;;8.80;7.83;;;;;;;14.88;89.26;98199.81;6227819;28;20235;-85
2022/06/10 12:51:42;;;;;;;9.90;8.20;;;;;;;14.93;89.35;98192.28;6202130;28;20304;-86
2022/06/10 12:54:57;;;;;;;8.53;7.73;;;;;;;14.98;89.23;98200.66;6225049;28;20378;-85
2022/06/10 12:57:59;;;;;;;8.97;8.07;;;;;;;15.01;89.38;98190.59;6189814;28;20225;-86
2022/06/10 13:01:19;;;;;;;9.10;7.23;;;;;;;15.00;88.34;98196.91;6218573;28;20665;-85
2022/06/10 13:04:22;;;;;;;9.57;8.63;;;;;;;15.09;88.46;98188.09;6214883;28;20240;-86
2022/06/10 13:07:28;;;;;;;8.70;7.63;;;;;;;15.23;87.94;98188.66;6232593;28;20285;-86
2022/06/10 13:10:33;;;;;;;8.20;7.37;;;;;;;15.33;87.63;98187.69;6232136;28;20235;-85
2022/06/10 13:13:37;;;;;;;8.10;7.30;;;;;;;15.40;87.60;98191.47;6214369;28;20246;-85
2022/06/10 13:16:48;;;;;;;9.20;7.83;;;;;;;15.49;86.22;98187.94;6231474;28;20236;-86
2022/06/10 13:19:53;;;;;;;6.70;6.10;;;;;;;15.62;86.25;98182.38;6214242;28;20307;-86
2022/06/10 13:23:26;;;;;;;7.17;6.47;;;;;;;15.63;85.74;98173.41;6231099;28;20263;-85
2022/06/10 13:26:30;;;;;;;7.70;6.70;;;;;;;15.66;85.93;98178.47;6191560;28;20778;-86
2022/06/10 13:29:32;;;;;;;7.27;6.63;;;;;;;15.70;85.65;98169.19;6230725;28;20231;-86
2022/06/10 13:32:59;;;;;;;7.27;6.13;;;;;;;15.71;85.11;98159.38;6214841;28;20234;-86
2022/06/10 13:36:02;;;;;;;8.13;7.07;;;;;;;15.82;85.13;98173.38;6189509;28;20315;-85
2022/06/10 13:39:06;;;;;;;6.90;6.30;;;;;;;15.93;84.92;98161.72;6200501;28;20211;-86
2022/06/10 13:42:18;;;;;;;6.40;5.80;;;;;;;16.16;84.34;98159.53;6231919;28;20254;-85
2022/06/10 13:45:31;;;;;;;6.17;5.63;;;;;;;16.41;83.45;98153.53;6231185;28;20362;-85
2022/06/10 13:48:33;;;;;;;7.40;5.63;;;;;;;16.76;81.95;98159.97;6199133;28;20228;-86
2022/06/10 13:51:42;;;;;;;5.93;5.37;;;;;;;17.32;79.24;98147.16;6230903;28;20719;-85
2022/06/10 13:54:44;;;;;;;6.00;5.40;;;;;;;18.49;75.13;98142.22;6213157;28;20347;-86
2022/06/10 13:58:01;;;;;;;7.27;5.47;;;;;;;19.65;70.46;98151.16;6230533;28;20322;-86
2022/06/10 14:01:07;;;;;;;4.27;3.80;;;;;;;21.25;66.82;98141.84;6212574;28;20314;-86
2022/06/10 14:04:14;;;;;;;5.97;4.13;;;;;;;21.34;64.99;98147.00;6249120;28;20373;-85
2022/06/10 14:07:30;;;;;;;4.60;4.07;;;;;;;21.48;62.99;98145.34;6229016;28;20382;-87
2022/06/10 14:10:44;;;;;;;6.77;4.10;;;;;;;21.50;64.01;98142.50;6238310;28;20231;-87
2022/06/10 14:13:59;;;;;;;3.87;3.30;;;;;;;21.84;60.83;98142.03;6237842;28;20232;-87
2022/06/10 14:17:16;;;;;;;3.93;2.83;;;;;;;22.68;61.71;98135.34;6238061;28;20277;-87
2022/06/10 14:20:22;;;;;;;4.43;2.77;;;;;;;24.19;56.49;98138.66;6254340;28;20240;-87
2022/06/10 14:23:27;;;;;;;4.13;3.40;;;;;;;24.91;52.99;98132.81;6259706;28;20277;-87
2022/06/10 14:26:32;;;;;;;5.40;3.37;;;;;;;25.46;50.07;98137.09;6242205;28;20232;-86
2022/06/10 14:29:45;;;;;;;3.57;3.27;;;;;;;26.08;47.88;98128.59;6203857;28;20695;-87
2022/06/10 14:33:01;;;;;;;4.43;2.70;;;;;;;29.05;44.30;98114.78;6237058;28;20223;-86
2022/06/10 14:36:12;;;;;;;3.03;2.67;;;;;;;30.75;39.95;98108.28;6238435;28;20306;-87
2022/06/10 14:39:22;;;;;;;4.27;3.60;;;;;;;31.74;35.33;98114.28;6221229;28;20208;-86
2022/06/10 14:42:25;;;;;;;3.67;2.90;;;;;;;32.11;35.35;98117.31;6235803;28;20223;-87
2022/06/10 14:45:39;;;;;;;3.07;2.37;;;;;;;32.33;34.79;98114.66;6212881;28;20694;-87
2022/06/10 14:48:44;;;;;;;2.40;2.03;;;;;;;33.46;33.27;98099.31;6253262;28;20311;-87
2022/06/10 14:51:46;;;;;;;3.22;2.70;;;;;;;33.66;32.69;98106.88;6236534;28;20705;-87
2022/06/10 14:54:48;;;;;;;4.60;2.22;;;;;;;34.05;31.53;98094.63;6229218;28;20258;-87
2022/06/10 14:57:55;;;;;;;3.00;2.55;;;;;;;34.10;31.40;98091.09;6236649;28;20223;-86
2022/06/10 15:00:57;;;;;;;2.95;2.05;;;;;;;34.72;30.25;98087.59;6236893;28;20215;-86
2022/06/10 15:03:59;;;;;;;1.85;1.70;;;;;;;34.28;31.25;98092.59;6237458;28;20222;-86
2022/06/10 15:07:02;;;;;;;3.47;1.92;;;;;;;34.41;30.28;98081.16;6236436;28;20219;-87